sensor_id;sensor_type;location;lat;lon;timestamp;P1;P2;P0
72031;PMS5003;49185;42.320;23.198;2023-04-24T00:00:22;23.00;21.00;14.00
72031;PMS5003;49185;42.320;23.198;2023-04-24T00:02:48;23.00;21.00;13.00
72031;PMS5003;49185;42.320;23.198;2023-04-24T00:05:15;22.33;19.67;12.00
72031;PMS5003;49185;42.320;23.198;2023-04-24T00:07:41;24.00;20.50;12.00
72031;PMS5003;49185;42.320;23.198;2023-04-24T00:10:07;22.75;20.50;11.50
72031;PMS5003;49185;42.320;23.198;2023-04-24T00:12:33;21.50;21.50;10.50
72031;PMS5003;49185;42.320;23.198;2023-04-24T00:14:59;21.00;21.00;12.00
72031;PMS5003;49185;42.320;23.198;2023-04-24T00:17:24;23.33;22.00;13.33
72031;PMS5003;49185;42.320;23.198;2023-04-24T00:19:50;22.00;21.00;12.00
72031;PMS5003;49185;42.320;23.198;2023-04-24T00:22:15;24.00;22.00;11.00
72031;PMS5003;49185;42.320;23.198;2023-04-24T00:24:41;21.00;19.67;9.00
72031;PMS5003;49185;42.320;23.198;2023-04-24T00:27:06;23.00;23.00;10.00
72031;PMS5003;49185;42.320;23.198;2023-04-24T00:29:32;23.00;21.00;10.67
72031;PMS5003;49185;42.320;23.198;2023-04-24T00:31:57;23.50;21.50;12.25
72031;PMS5003;49185;42.320;23.198;2023-04-24T00:34:23;24.67;21.67;13.00
72031;PMS5003;49185;42.320;23.198;2023-04-24T00:36:48;25.00;23.00;14.00
72031;PMS5003;49185;42.320;23.198;2023-04-24T00:39:14;24.33;23.00;13.00
72031;PMS5003;49185;42.320;23.198;2023-04-24T00:41:39;23.33;21.33;12.67
72031;PMS5003;49185;42.320;23.198;2023-04-24T00:44:04;24.00;23.00;13.00
72031;PMS5003;49185;42.320;23.198;2023-04-24T00:46:30;24.67;23.33;12.00
72031;PMS5003;49185;42.320;23.198;2023-04-24T00:48:56;26.00;25.00;13.00
72031;PMS5003;49185;42.320;23.198;2023-04-24T00:51:23;26.00;25.00;14.50
72031;PMS5003;49185;42.320;23.198;2023-04-24T00:53:49;27.00;24.00;14.00
72031;PMS5003;49185;42.320;23.198;2023-04-24T00:56:15;22.00;21.00;13.00
72031;PMS5003;49185;42.320;23.198;2023-04-24T00:58:40;22.00;21.00;11.00
72031;PMS5003;49185;42.320;23.198;2023-04-24T01:01:07;24.75;22.25;10.50
72031;PMS5003;49185;42.320;23.198;2023-04-24T01:03:33;25.50;23.25;12.25
72031;PMS5003;49185;42.320;23.198;2023-04-24T01:05:59;23.00;22.75;12.00
72031;PMS5003;49185;42.320;23.198;2023-04-24T01:08:26;23.00;21.00;10.00
72031;PMS5003;49185;42.320;23.198;2023-04-24T01:10:53;20.00;20.00;8.75
72031;PMS5003;49185;42.320;23.198;2023-04-24T01:13:20;21.00;21.00;11.00
72031;PMS5003;49185;42.320;23.198;2023-04-24T01:15:45;24.33;23.00;12.00
72031;PMS5003;49185;42.320;23.198;2023-04-24T01:18:12;25.75;23.50;12.00
72031;PMS5003;49185;42.320;23.198;2023-04-24T01:20:39;27.50;23.25;12.25
72031;PMS5003;49185;42.320;23.198;2023-04-24T01:23:06;25.25;24.00;13.00
72031;PMS5003;49185;42.320;23.198;2023-04-24T01:25:32;26.00;25.00;13.50
72031;PMS5003;49185;42.320;23.198;2023-04-24T01:27:58;25.00;23.00;12.50
72031;PMS5003;49185;42.320;23.198;2023-04-24T01:30:24;24.00;23.00;13.00
72031;PMS5003;49185;42.320;23.198;2023-04-24T01:32:51;24.00;24.00;13.00
72031;PMS5003;49185;42.320;23.198;2023-04-24T01:35:17;23.25;23.00;14.00
72031;PMS5003;49185;42.320;23.198;2023-04-24T01:37:43;26.50;24.00;13.00
72031;PMS5003;49185;42.320;23.198;2023-04-24T01:40:09;23.75;23.00;12.00
72031;PMS5003;49185;42.320;23.198;2023-04-24T01:42:34;23.75;22.75;11.00
72031;PMS5003;49185;42.320;23.198;2023-04-24T01:45:00;25.00;22.00;10.67
72031;PMS5003;49185;42.320;23.198;2023-04-24T01:47:27;24.75;21.50;11.25
72031;PMS5003;49185;42.320;23.198;2023-04-24T01:49:53;23.00;21.33;13.00
72031;PMS5003;49185;42.320;23.198;2023-04-24T01:52:18;24.00;22.00;14.00
72031;PMS5003;49185;42.320;23.198;2023-04-24T01:54:44;24.00;22.00;14.00
72031;PMS5003;49185;42.320;23.198;2023-04-24T01:57:09;22.67;20.00;13.00
72031;PMS5003;49185;42.320;23.198;2023-04-24T01:59:35;24.00;21.00;12.00
72031;PMS5003;49185;42.320;23.198;2023-04-24T02:02:00;26.00;22.00;11.00
72031;PMS5003;49185;42.320;23.198;2023-04-24T02:04:26;25.00;21.67;10.67
72031;PMS5003;49185;42.320;23.198;2023-04-24T02:06:51;25.00;21.67;13.33
72031;PMS5003;49185;42.320;23.198;2023-04-24T02:09:17;22.67;21.00;12.33
72031;PMS5003;49185;42.320;23.198;2023-04-24T02:11:42;23.00;21.00;10.33
72031;PMS5003;49185;42.320;23.198;2023-04-24T02:14:07;22.33;21.33;12.00
72031;PMS5003;49185;42.320;23.198;2023-04-24T02:16:33;24.33;23.00;12.00
72031;PMS5003;49185;42.320;23.198;2023-04-24T02:18:58;27.00;24.00;13.00
72031;PMS5003;49185;42.320;23.198;2023-04-24T02:21:24;25.00;24.67;13.00
72031;PMS5003;49185;42.320;23.198;2023-04-24T02:23:49;25.33;24.33;14.00
72031;PMS5003;49185;42.320;23.198;2023-04-24T02:26:14;22.00;22.00;13.00
72031;PMS5003;49185;42.320;23.198;2023-04-24T02:28:40;24.33;23.33;13.00
72031;PMS5003;49185;42.320;23.198;2023-04-24T02:31:05;25.33;24.00;13.33
72031;PMS5003;49185;42.320;23.198;2023-04-24T02:33:31;27.00;23.33;14.00
72031;PMS5003;49185;42.320;23.198;2023-04-24T02:35:56;23.33;23.00;13.67
72031;PMS5003;49185;42.320;23.198;2023-04-24T02:38:22;21.33;20.00;11.00
72031;PMS5003;49185;42.320;23.198;2023-04-24T02:40:47;22.00;20.00;11.00
72031;PMS5003;49185;42.320;23.198;2023-04-24T02:43:13;22.00;20.00;9.33
72031;PMS5003;49185;42.320;23.198;2023-04-24T02:45:38;20.33;19.33;9.00
72031;PMS5003;49185;42.320;23.198;2023-04-24T02:48:04;21.00;20.33;10.33
72031;PMS5003;49185;42.320;23.198;2023-04-24T02:50:29;22.33;22.00;11.00
72031;PMS5003;49185;42.320;23.198;2023-04-24T02:52:54;24.00;22.00;9.00
72031;PMS5003;49185;42.320;23.198;2023-04-24T02:55:20;22.00;21.00;8.00
72031;PMS5003;49185;42.320;23.198;2023-04-24T02:57:45;21.00;21.00;8.00
72031;PMS5003;49185;42.320;23.198;2023-04-24T03:00:11;22.00;20.00;10.00
72031;PMS5003;49185;42.320;23.198;2023-04-24T03:02:37;20.25;19.00;8.50
72031;PMS5003;49185;42.320;23.198;2023-04-24T03:05:02;22.00;20.00;9.00
72031;PMS5003;49185;42.320;23.198;2023-04-24T03:07:28;20.67;18.00;8.00
72031;PMS5003;49185;42.320;23.198;2023-04-24T03:09:53;23.33;20.00;9.00
72031;PMS5003;49185;42.320;23.198;2023-04-24T03:12:18;25.33;23.00;11.00
72031;PMS5003;49185;42.320;23.198;2023-04-24T03:14:44;24.00;22.00;10.00
72031;PMS5003;49185;42.320;23.198;2023-04-24T03:17:09;22.00;22.00;11.00
72031;PMS5003;49185;42.320;23.198;2023-04-24T03:19:35;21.00;20.67;10.67
72031;PMS5003;49185;42.320;23.198;2023-04-24T03:22:01;22.67;21.33;9.00
72031;PMS5003;49185;42.320;23.198;2023-04-24T03:24:27;23.00;22.75;10.00
72031;PMS5003;49185;42.320;23.198;2023-04-24T03:26:53;23.67;22.00;10.00
72031;PMS5003;49185;42.320;23.198;2023-04-24T03:29:18;25.00;23.00;11.00
72031;PMS5003;49185;42.320;23.198;2023-04-24T03:31:44;24.00;21.00;11.00
72031;PMS5003;49185;42.320;23.198;2023-04-24T03:34:09;23.00;22.33;12.00
72031;PMS5003;49185;42.320;23.198;2023-04-24T03:36:35;23.33;22.00;13.00
72031;PMS5003;49185;42.320;23.198;2023-04-24T03:39:00;23.00;21.00;11.00
72031;PMS5003;49185;42.320;23.198;2023-04-24T03:41:26;23.00;20.33;9.00
72031;PMS5003;49185;42.320;23.198;2023-04-24T03:43:51;22.33;22.00;10.00
72031;PMS5003;49185;42.320;23.198;2023-04-24T03:46:16;24.00;22.67;13.67
72031;PMS5003;49185;42.320;23.198;2023-04-24T03:48:42;25.00;22.33;13.00
72031;PMS5003;49185;42.320;23.198;2023-04-24T03:51:07;27.67;22.33;13.00
72031;PMS5003;49185;42.320;23.198;2023-04-24T03:53:34;24.25;22.50;14.00
72031;PMS5003;49185;42.320;23.198;2023-04-24T03:55:59;24.33;24.33;13.00
72031;PMS5003;49185;42.320;23.198;2023-04-24T03:58:25;24.67;22.33;13.00
72031;PMS5003;49185;42.320;23.198;2023-04-24T04:00:50;24.33;23.00;13.00
72031;PMS5003;49185;42.320;23.198;2023-04-24T04:03:16;24.33;23.67;12.67
72031;PMS5003;49185;42.320;23.198;2023-04-24T04:05:41;26.33;25.33;16.00
72031;PMS5003;49185;42.320;23.198;2023-04-24T04:08:07;28.33;25.00;15.33
72031;PMS5003;49185;42.320;23.198;2023-04-24T04:10:32;29.33;24.33;15.00
72031;PMS5003;49185;42.320;23.198;2023-04-24T04:12:57;30.00;26.00;15.00
72031;PMS5003;49185;42.320;23.198;2023-04-24T04:15:23;30.33;26.00;16.33
72031;PMS5003;49185;42.320;23.198;2023-04-24T04:17:48;29.00;26.33;16.33
72031;PMS5003;49185;42.320;23.198;2023-04-24T04:20:14;26.67;25.33;15.00
72031;PMS5003;49185;42.320;23.198;2023-04-24T04:22:39;26.33;23.33;13.00
72031;PMS5003;49185;42.320;23.198;2023-04-24T04:25:04;25.33;23.00;13.00
72031;PMS5003;49185;42.320;23.198;2023-04-24T04:27:30;24.00;22.00;12.00
72031;PMS5003;49185;42.320;23.198;2023-04-24T04:29:56;22.75;21.50;11.00
72031;PMS5003;49185;42.320;23.198;2023-04-24T04:32:21;24.00;23.00;11.00
72031;PMS5003;49185;42.320;23.198;2023-04-24T04:34:47;25.33;24.00;14.00
72031;PMS5003;49185;42.320;23.198;2023-04-24T04:37:12;28.00;25.33;16.00
72031;PMS5003;49185;42.320;23.198;2023-04-24T04:39:38;30.00;26.33;16.00
72031;PMS5003;49185;42.320;23.198;2023-04-24T04:42:03;31.00;28.33;16.00
72031;PMS5003;49185;42.320;23.198;2023-04-24T04:44:29;29.67;26.33;16.00
72031;PMS5003;49185;42.320;23.198;2023-04-24T04:46:54;28.33;27.00;16.00
72031;PMS5003;49185;42.320;23.198;2023-04-24T04:49:19;27.33;26.00;16.00
72031;PMS5003;49185;42.320;23.198;2023-04-24T04:51:45;25.00;24.00;15.00
72031;PMS5003;49185;42.320;23.198;2023-04-24T04:54:10;29.33;28.00;17.00
72031;PMS5003;49185;42.320;23.198;2023-04-24T04:56:36;32.67;29.33;19.00
72031;PMS5003;49185;42.320;23.198;2023-04-24T04:59:01;28.33;26.33;18.00
72031;PMS5003;49185;42.320;23.198;2023-04-24T05:01:27;26.67;24.00;17.00
72031;PMS5003;49185;42.320;23.198;2023-04-24T05:03:52;24.00;21.67;14.67
72031;PMS5003;49185;42.320;23.198;2023-04-24T05:06:17;24.33;22.33;14.00
72031;PMS5003;49185;42.320;23.198;2023-04-24T05:08:43;25.00;22.00;14.00
72031;PMS5003;49185;42.320;23.198;2023-04-24T05:11:08;28.33;26.00;16.00
72031;PMS5003;49185;42.320;23.198;2023-04-24T05:13:34;28.00;26.00;16.00
72031;PMS5003;49185;42.320;23.198;2023-04-24T05:15:59;26.33;25.00;15.00
72031;PMS5003;49185;42.320;23.198;2023-04-24T05:18:24;27.00;24.00;15.33
72031;PMS5003;49185;42.320;23.198;2023-04-24T05:20:50;29.00;25.00;16.00
72031;PMS5003;49185;42.320;23.198;2023-04-24T05:23:15;28.00;23.00;15.00
72031;PMS5003;49185;42.320;23.198;2023-04-24T05:25:41;24.00;21.67;14.00
72031;PMS5003;49185;42.320;23.198;2023-04-24T05:28:06;23.33;22.33;14.00
72031;PMS5003;49185;42.320;23.198;2023-04-24T05:30:31;21.33;20.00;12.00
72031;PMS5003;49185;42.320;23.198;2023-04-24T05:32:57;21.00;20.00;12.33
72031;PMS5003;49185;42.320;23.198;2023-04-24T05:35:22;21.33;19.33;10.33
72031;PMS5003;49185;42.320;23.198;2023-04-24T05:37:48;24.00;20.67;11.00
72031;PMS5003;49185;42.320;23.198;2023-04-24T05:40:13;20.67;20.67;10.67
72031;PMS5003;49185;42.320;23.198;2023-04-24T05:42:39;18.00;18.00;8.00
72031;PMS5003;49185;42.320;23.198;2023-04-24T05:45:04;19.33;18.33;9.00
72031;PMS5003;49185;42.320;23.198;2023-04-24T05:47:30;20.25;18.50;9.25
72031;PMS5003;49185;42.320;23.198;2023-04-24T05:49:56;20.00;18.33;10.00
72031;PMS5003;49185;42.320;23.198;2023-04-24T05:52:21;20.00;18.33;10.00
72031;PMS5003;49185;42.320;23.198;2023-04-24T05:54:47;21.00;18.67;9.00
72031;PMS5003;49185;42.320;23.198;2023-04-24T05:57:12;19.33;18.33;10.00
72031;PMS5003;49185;42.320;23.198;2023-04-24T05:59:38;19.33;19.33;10.00
72031;PMS5003;49185;42.320;23.198;2023-04-24T06:02:03;19.00;19.00;9.00
72031;PMS5003;49185;42.320;23.198;2023-04-24T06:04:29;20.50;20.50;12.00
72031;PMS5003;49185;42.320;23.198;2023-04-24T06:06:55;20.00;20.00;10.00
72031;PMS5003;49185;42.320;23.198;2023-04-24T06:09:20;19.00;18.00;9.00
72031;PMS5003;49185;42.320;23.198;2023-04-24T06:11:45;20.00;18.67;10.00
72031;PMS5003;49185;42.320;23.198;2023-04-24T06:14:11;19.33;19.00;9.00
72031;PMS5003;49185;42.320;23.198;2023-04-24T06:16:36;21.00;18.67;9.00
72031;PMS5003;49185;42.320;23.198;2023-04-24T06:19:02;21.00;19.00;9.33
72031;PMS5003;49185;42.320;23.198;2023-04-24T06:21:27;22.00;20.00;10.00
72031;PMS5003;49185;42.320;23.198;2023-04-24T06:23:53;22.00;20.00;10.00
72031;PMS5003;49185;42.320;23.198;2023-04-24T06:26:19;20.50;20.50;11.00
72031;PMS5003;49185;42.320;23.198;2023-04-24T06:28:44;19.00;19.00;8.00
72031;PMS5003;49185;42.320;23.198;2023-04-24T06:31:10;18.67;18.00;10.00
72031;PMS5003;49185;42.320;23.198;2023-04-24T06:33:35;18.00;18.00;8.00
72031;PMS5003;49185;42.320;23.198;2023-04-24T06:36:01;19.00;19.00;8.00
72031;PMS5003;49185;42.320;23.198;2023-04-24T06:38:26;20.00;19.00;8.33
72031;PMS5003;49185;42.320;23.198;2023-04-24T06:40:51;18.00;18.00;8.00
72031;PMS5003;49185;42.320;23.198;2023-04-24T06:43:17;18.00;17.00;7.00
72031;PMS5003;49185;42.320;23.198;2023-04-24T06:45:42;18.00;17.00;6.00
72031;PMS5003;49185;42.320;23.198;2023-04-24T06:48:08;18.67;18.33;9.00
72031;PMS5003;49185;42.320;23.198;2023-04-24T06:50:33;19.33;19.33;9.33
72031;PMS5003;49185;42.320;23.198;2023-04-24T06:52:59;18.00;18.00;8.00
72031;PMS5003;49185;42.320;23.198;2023-04-24T06:55:24;18.00;18.00;7.67
72031;PMS5003;49185;42.320;23.198;2023-04-24T06:57:49;19.00;19.00;9.00
72031;PMS5003;49185;42.320;23.198;2023-04-24T07:00:15;20.67;19.67;8.67
72031;PMS5003;49185;42.320;23.198;2023-04-24T07:02:40;19.00;18.00;8.00
72031;PMS5003;49185;42.320;23.198;2023-04-24T07:05:06;18.00;18.00;7.00
72031;PMS5003;49185;42.320;23.198;2023-04-24T07:07:31;17.33;16.67;6.00
72031;PMS5003;49185;42.320;23.198;2023-04-24T07:09:57;15.00;15.00;8.33
72031;PMS5003;49185;42.320;23.198;2023-04-24T07:12:22;17.00;16.00;7.00
72031;PMS5003;49185;42.320;23.198;2023-04-24T07:14:48;17.67;16.00;6.33
72031;PMS5003;49185;42.320;23.198;2023-04-24T07:17:13;16.00;15.00;7.00
72031;PMS5003;49185;42.320;23.198;2023-04-24T07:19:39;17.33;16.67;7.33
72031;PMS5003;49185;42.320;23.198;2023-04-24T07:22:04;18.00;18.00;9.00
72031;PMS5003;49185;42.320;23.198;2023-04-24T07:24:30;21.00;19.67;9.67
72031;PMS5003;49185;42.320;23.198;2023-04-24T07:26:55;18.50;18.50;8.00
72031;PMS5003;49185;42.320;23.198;2023-04-24T07:29:21;17.00;16.00;9.00
72031;PMS5003;49185;42.320;23.198;2023-04-24T07:31:46;17.33;17.33;8.67
72031;PMS5003;49185;42.320;23.198;2023-04-24T07:34:12;16.00;15.00;8.00
72031;PMS5003;49185;42.320;23.198;2023-04-24T07:36:37;18.00;18.00;8.67
72031;PMS5003;49185;42.320;23.198;2023-04-24T07:39:03;17.00;15.00;7.33
72031;PMS5003;49185;42.320;23.198;2023-04-24T07:41:29;17.00;16.00;7.00
72031;PMS5003;49185;42.320;23.198;2023-04-24T07:43:55;15.00;15.00;7.00
72031;PMS5003;49185;42.320;23.198;2023-04-24T07:46:20;15.67;15.00;7.67
72031;PMS5003;49185;42.320;23.198;2023-04-24T07:48:46;13.00;12.00;6.00
72031;PMS5003;49185;42.320;23.198;2023-04-24T07:51:11;16.00;15.00;8.00
72031;PMS5003;49185;42.320;23.198;2023-04-24T07:53:37;16.00;16.00;7.00
72031;PMS5003;49185;42.320;23.198;2023-04-24T07:56:02;15.00;15.00;7.00
72031;PMS5003;49185;42.320;23.198;2023-04-24T07:58:27;15.00;14.00;6.00
72031;PMS5003;49185;42.320;23.198;2023-04-24T08:00:53;15.00;15.00;8.00
72031;PMS5003;49185;42.320;23.198;2023-04-24T08:03:18;15.00;15.00;7.00
72031;PMS5003;49185;42.320;23.198;2023-04-24T08:05:44;16.00;16.00;8.00
72031;PMS5003;49185;42.320;23.198;2023-04-24T08:08:09;16.00;14.00;6.00
72031;PMS5003;49185;42.320;23.198;2023-04-24T08:10:35;17.67;16.67;8.67
72031;PMS5003;49185;42.320;23.198;2023-04-24T08:13:00;18.00;17.00;7.00
72031;PMS5003;49185;42.320;23.198;2023-04-24T08:15:26;17.33;17.00;9.00
72031;PMS5003;49185;42.320;23.198;2023-04-24T08:17:52;16.25;15.00;8.00
72031;PMS5003;49185;42.320;23.198;2023-04-24T08:20:18;18.00;17.00;10.00
72031;PMS5003;49185;42.320;23.198;2023-04-24T08:22:43;16.00;15.00;9.00
72031;PMS5003;49185;42.320;23.198;2023-04-24T08:25:09;17.00;17.00;8.67
72031;PMS5003;49185;42.320;23.198;2023-04-24T08:27:35;18.00;18.00;9.00
72031;PMS5003;49185;42.320;23.198;2023-04-24T08:30:01;17.00;16.00;6.75
72031;PMS5003;49185;42.320;23.198;2023-04-24T08:32:27;19.00;17.00;7.00
72031;PMS5003;49185;42.320;23.198;2023-04-24T08:34:52;19.00;17.00;7.00
72031;PMS5003;49185;42.320;23.198;2023-04-24T08:37:17;17.00;15.00;7.00
72031;PMS5003;49185;42.320;23.198;2023-04-24T08:39:43;17.00;15.67;7.00
72031;PMS5003;49185;42.320;23.198;2023-04-24T08:42:08;17.00;15.00;7.00
72031;PMS5003;49185;42.320;23.198;2023-04-24T08:44:36;18.00;14.50;6.00
72031;PMS5003;49185;42.320;23.198;2023-04-24T08:47:01;18.00;16.00;7.33
72031;PMS5003;49185;42.320;23.198;2023-04-24T08:49:28;18.00;15.50;8.25
72031;PMS5003;49185;42.320;23.198;2023-04-24T08:51:54;18.25;16.50;7.00
72031;PMS5003;49185;42.320;23.198;2023-04-24T08:54:20;18.67;16.00;7.00
72031;PMS5003;49185;42.320;23.198;2023-04-24T08:56:46;17.00;15.00;7.00
72031;PMS5003;49185;42.320;23.198;2023-04-24T08:59:14;17.00;15.25;8.00
72031;PMS5003;49185;42.320;23.198;2023-04-24T09:01:40;16.00;15.25;6.00
72031;PMS5003;49185;42.320;23.198;2023-04-24T09:04:08;15.50;15.00;6.00
72031;PMS5003;49185;42.320;23.198;2023-04-24T09:06:34;14.00;13.00;6.00
72031;PMS5003;49185;42.320;23.198;2023-04-24T09:09:00;16.33;14.67;8.67
72031;PMS5003;49185;42.320;23.198;2023-04-24T09:11:26;17.00;15.00;7.00
72031;PMS5003;49185;42.320;23.198;2023-04-24T09:13:52;13.00;11.00;7.00
72031;PMS5003;49185;42.320;23.198;2023-04-24T09:16:19;12.00;10.00;6.00
72031;PMS5003;49185;42.320;23.198;2023-04-24T09:18:45;13.00;11.00;6.00
72031;PMS5003;49185;42.320;23.198;2023-04-24T09:21:10;12.00;9.67;5.33
72031;PMS5003;49185;42.320;23.198;2023-04-24T09:23:36;14.67;12.67;7.00
72031;PMS5003;49185;42.320;23.198;2023-04-24T09:26:03;15.00;15.00;6.00
72031;PMS5003;49185;42.320;23.198;2023-04-24T09:28:29;12.00;12.00;5.00
72031;PMS5003;49185;42.320;23.198;2023-04-24T09:31:11;11.00;11.00;6.00
72031;PMS5003;49185;42.320;23.198;2023-04-24T09:33:38;10.50;9.50;5.50
72031;PMS5003;49185;42.320;23.198;2023-04-24T09:36:03;10.00;9.33;5.00
72031;PMS5003;49185;42.320;23.198;2023-04-24T09:38:33;11.00;10.00;6.00
72031;PMS5003;49185;42.320;23.198;2023-04-24T09:41:03;10.50;8.75;3.00
72031;PMS5003;49185;42.320;23.198;2023-04-24T09:43:30;9.00;8.75;4.50
72031;PMS5003;49185;42.320;23.198;2023-04-24T09:45:57;5.75;5.75;2.75
72031;PMS5003;49185;42.320;23.198;2023-04-24T09:48:29;8.00;8.00;3.75
72031;PMS5003;49185;42.320;23.198;2023-04-24T09:50:56;8.50;8.50;4.00
72031;PMS5003;49185;42.320;23.198;2023-04-24T09:53:24;9.00;9.00;4.67
72031;PMS5003;49185;42.320;23.198;2023-04-24T09:55:50;7.75;7.00;3.00
72031;PMS5003;49185;42.320;23.198;2023-04-24T09:58:15;7.00;7.00;3.00
72031;PMS5003;49185;42.320;23.198;2023-04-24T10:00:41;6.33;6.00;2.67
72031;PMS5003;49185;42.320;23.198;2023-04-24T10:03:06;7.00;7.00;2.33
72031;PMS5003;49185;42.320;23.198;2023-04-24T10:05:32;6.00;6.00;2.00
72031;PMS5003;49185;42.320;23.198;2023-04-24T10:08:00;6.00;6.00;2.00
72031;PMS5003;49185;42.320;23.198;2023-04-24T10:10:27;5.75;5.00;3.00
72031;PMS5003;49185;42.320;23.198;2023-04-24T10:12:53;8.25;8.00;4.00
72031;PMS5003;49185;42.320;23.198;2023-04-24T10:15:19;5.00;5.00;2.25
72031;PMS5003;49185;42.320;23.198;2023-04-24T10:17:46;6.00;6.00;3.00
72031;PMS5003;49185;42.320;23.198;2023-04-24T10:20:15;6.00;6.00;2.00
72031;PMS5003;49185;42.320;23.198;2023-04-24T10:22:41;6.67;6.67;3.00
72031;PMS5003;49185;42.320;23.198;2023-04-24T10:25:06;7.00;7.00;4.00
72031;PMS5003;49185;42.320;23.198;2023-04-24T10:27:33;7.00;7.00;5.00
72031;PMS5003;49185;42.320;23.198;2023-04-24T10:30:00;7.00;6.00;4.00
72031;PMS5003;49185;42.320;23.198;2023-04-24T10:32:26;6.00;6.00;4.00
72031;PMS5003;49185;42.320;23.198;2023-04-24T10:34:52;7.00;7.00;4.00
72031;PMS5003;49185;42.320;23.198;2023-04-24T10:37:18;8.00;8.00;4.00
72031;PMS5003;49185;42.320;23.198;2023-04-24T10:39:47;8.50;8.50;4.00
72031;PMS5003;49185;42.320;23.198;2023-04-24T10:42:14;8.00;7.00;5.00
72031;PMS5003;49185;42.320;23.198;2023-04-24T10:44:40;7.00;6.00;4.00
72031;PMS5003;49185;42.320;23.198;2023-04-24T10:47:05;7.00;6.33;4.00
72031;PMS5003;49185;42.320;23.198;2023-04-24T10:49:38;7.00;6.00;3.00
72031;PMS5003;49185;42.320;23.198;2023-04-24T10:52:04;6.00;6.00;2.33
72031;PMS5003;49185;42.320;23.198;2023-04-24T10:54:43;8.00;8.00;4.00
72031;PMS5003;49185;42.320;23.198;2023-04-24T10:59:45;7.00;6.00;4.00
72031;PMS5003;49185;42.320;23.198;2023-04-24T11:02:15;8.00;6.00;3.00
72031;PMS5003;49185;42.320;23.198;2023-04-24T11:04:42;8.00;7.00;3.00
72031;PMS5003;49185;42.320;23.198;2023-04-24T11:07:11;10.00;8.50;4.00
72031;PMS5003;49185;42.320;23.198;2023-04-24T11:09:37;8.00;7.00;4.00
72031;PMS5003;49185;42.320;23.198;2023-04-24T11:12:07;9.00;9.00;4.00
72031;PMS5003;49185;42.320;23.198;2023-04-24T11:17:30;8.00;8.00;4.00
72031;PMS5003;49185;42.320;23.198;2023-04-24T11:20:00;7.75;7.75;3.50
72031;PMS5003;49185;42.320;23.198;2023-04-24T11:22:26;6.00;6.00;3.00
72031;PMS5003;49185;42.320;23.198;2023-04-24T11:24:55;7.00;7.00;3.00
72031;PMS5003;49185;42.320;23.198;2023-04-24T11:27:21;8.00;7.00;3.00
72031;PMS5003;49185;42.320;23.198;2023-04-24T11:34:58;9.00;8.00;5.00
72031;PMS5003;49185;42.320;23.198;2023-04-24T11:37:48;7.00;6.00;4.00
72031;PMS5003;49185;42.320;23.198;2023-04-24T11:40:15;8.25;8.00;3.00
72031;PMS5003;49185;42.320;23.198;2023-04-24T11:42:43;7.50;7.25;3.00
72031;PMS5003;49185;42.320;23.198;2023-04-24T11:45:10;8.00;7.00;4.00
72031;PMS5003;49185;42.320;23.198;2023-04-24T11:47:41;7.00;7.00;4.00
72031;PMS5003;49185;42.320;23.198;2023-04-24T11:50:08;5.50;5.50;2.00
72031;PMS5003;49185;42.320;23.198;2023-04-24T11:52:39;6.00;6.00;3.00
72031;PMS5003;49185;42.320;23.198;2023-04-24T11:57:43;7.00;7.00;2.00
72031;PMS5003;49185;42.320;23.198;2023-04-24T12:03:06;6.00;6.00;1.00
72031;PMS5003;49185;42.320;23.198;2023-04-24T12:05:33;4.00;4.00;3.00
72031;PMS5003;49185;42.320;23.198;2023-04-24T12:07:58;7.00;6.67;2.00
72031;PMS5003;49185;42.320;23.198;2023-04-24T12:10:24;7.00;7.00;3.00
72031;PMS5003;49185;42.320;23.198;2023-04-24T12:12:52;6.00;6.00;2.75
72031;PMS5003;49185;42.320;23.198;2023-04-24T12:15:20;9.00;8.00;3.25
72031;PMS5003;49185;42.320;23.198;2023-04-24T12:17:47;8.00;8.00;5.00
72031;PMS5003;49185;42.320;23.198;2023-04-24T12:20:15;8.00;8.00;4.25
72031;PMS5003;49185;42.320;23.198;2023-04-24T12:25:10;7.50;7.50;4.00
72031;PMS5003;49185;42.320;23.198;2023-04-24T12:27:36;7.00;6.00;3.00
72031;PMS5003;49185;42.320;23.198;2023-04-24T12:30:03;6.00;6.00;4.00
72031;PMS5003;49185;42.320;23.198;2023-04-24T12:32:29;8.00;7.00;4.50
72031;PMS5003;49185;42.320;23.198;2023-04-24T12:34:55;8.00;8.00;4.00
72031;PMS5003;49185;42.320;23.198;2023-04-24T12:37:22;7.00;7.00;4.00
72031;PMS5003;49185;42.320;23.198;2023-04-24T12:40:00;7.25;7.00;4.00
72031;PMS5003;49185;42.320;23.198;2023-04-24T12:42:32;7.00;7.00;3.00
72031;PMS5003;49185;42.320;23.198;2023-04-24T12:44:59;6.00;6.00;3.00
72031;PMS5003;49185;42.320;23.198;2023-04-24T12:47:30;7.00;7.00;4.00
72031;PMS5003;49185;42.320;23.198;2023-04-24T12:49:57;8.00;8.00;4.00
72031;PMS5003;49185;42.320;23.198;2023-04-24T12:52:23;8.00;8.00;4.00
72031;PMS5003;49185;42.320;23.198;2023-04-24T12:54:49;5.50;5.00;3.00
72031;PMS5003;49185;42.320;23.198;2023-04-24T12:57:15;7.00;6.00;3.00
72031;PMS5003;49185;42.320;23.198;2023-04-24T12:59:41;6.00;5.00;3.33
72031;PMS5003;49185;42.320;23.198;2023-04-24T13:02:06;5.00;5.00;3.00
72031;PMS5003;49185;42.320;23.198;2023-04-24T13:04:32;8.00;7.67;3.00
72031;PMS5003;49185;42.320;23.198;2023-04-24T13:06:57;7.67;7.67;4.00
72031;PMS5003;49185;42.320;23.198;2023-04-24T13:09:23;7.33;7.33;3.00
72031;PMS5003;49185;42.320;23.198;2023-04-24T13:11:49;7.00;6.00;3.00
72031;PMS5003;49185;42.320;23.198;2023-04-24T13:14:15;8.00;8.00;3.00
72031;PMS5003;49185;42.320;23.198;2023-04-24T13:16:40;8.00;7.00;4.00
72031;PMS5003;49185;42.320;23.198;2023-04-24T13:19:06;8.00;8.00;4.00
72031;PMS5003;49185;42.320;23.198;2023-04-24T13:21:31;8.00;8.00;5.00
72031;PMS5003;49185;42.320;23.198;2023-04-24T13:23:57;7.00;7.00;4.00
72031;PMS5003;49185;42.320;23.198;2023-04-24T13:26:22;6.00;6.00;3.33
72031;PMS5003;49185;42.320;23.198;2023-04-24T13:28:48;7.00;6.00;4.00
72031;PMS5003;49185;42.320;23.198;2023-04-24T13:31:13;6.25;6.00;5.00
72031;PMS5003;49185;42.320;23.198;2023-04-24T13:33:39;8.00;8.00;4.00
72031;PMS5003;49185;42.320;23.198;2023-04-24T13:36:04;8.00;8.00;3.00
72031;PMS5003;49185;42.320;23.198;2023-04-24T13:38:30;9.00;7.00;3.00
72031;PMS5003;49185;42.320;23.198;2023-04-24T13:40:55;6.00;6.00;3.00
72031;PMS5003;49185;42.320;23.198;2023-04-24T13:43:21;6.00;6.00;3.00
72031;PMS5003;49185;42.320;23.198;2023-04-24T13:45:46;9.00;8.00;4.00
72031;PMS5003;49185;42.320;23.198;2023-04-24T13:48:12;6.00;6.00;3.00
72031;PMS5003;49185;42.320;23.198;2023-04-24T13:50:37;7.00;7.00;3.00
72031;PMS5003;49185;42.320;23.198;2023-04-24T13:53:03;6.00;6.00;3.67
72031;PMS5003;49185;42.320;23.198;2023-04-24T13:55:29;7.00;7.00;4.00
72031;PMS5003;49185;42.320;23.198;2023-04-24T13:57:54;8.00;8.00;3.00
72031;PMS5003;49185;42.320;23.198;2023-04-24T14:00:20;5.33;5.33;4.00